Time;durP1;ratioP1;P1;durP2;ratioP2;P2;SDS_P1;SDS_P2;PMS_P1;PMS_P2;Temp;Humidity;BMP_temperature;BMP_pressure;BME280_temperature;BME280_humidity;BME280_pressure;Samples;Min_cycle;Max_cycle;Signal;HPM_P1;HPM_P2
2021/11/01 00:01:07;;;;;;;1.20;1.00;;;8.40;99.90;;;;;;5110657;28;20032;-68
2021/11/01 00:03:33;;;;;;;2.45;1.20;;;8.50;99.90;;;;;;5099702;28;20359;-68
2021/11/01 00:05:59;;;;;;;2.45;1.20;;;8.20;99.90;;;;;;5097073;28;20032;-68
2021/11/01 00:08:25;;;;;;;2.70;1.00;;;8.20;99.90;;;;;;5098333;28;20032;-68
2021/11/01 00:10:51;;;;;;;1.65;1.35;;;8.10;99.90;;;;;;5098592;28;20107;-68
2021/11/01 00:13:17;;;;;;;2.67;1.13;;;8.10;99.90;;;;;;5098267;28;20027;-68
2021/11/01 00:15:43;;;;;;;;;;;7.90;99.90;;;;;;5099052;28;20423;-68
2021/11/01 00:18:10;;;;;;;2.35;1.13;;;7.90;99.90;;;;;;5098456;28;19918;-68
2021/11/01 00:20:36;;;;;;;6.88;1.35;;;7.90;99.90;;;;;;5098132;28;20029;-68
2021/11/01 00:23:01;;;;;;;;;;;7.80;99.90;;;;;;5098513;28;20028;-69
2021/11/01 00:25:27;;;;;;;4.03;1.80;;;7.50;99.90;;;;;;5098355;28;19904;-68
2021/11/01 00:27:55;;;;;;;4.40;2.85;;;7.70;99.90;;;;;;5098164;28;20032;-70
2021/11/01 00:30:21;;;;;;;1.40;1.00;;;7.80;99.90;;;;;;5098002;28;20028;-70
2021/11/01 00:32:47;;;;;;;;;;;7.80;99.90;;;;;;5097302;28;20377;-70
2021/11/01 00:35:14;;;;;;;4.33;1.40;;;7.70;99.90;;;;;;5098097;28;19904;-71
2021/11/01 00:37:40;;;;;;;1.60;1.50;;;7.70;99.90;;;;;;5097934;28;20060;-69
2021/11/01 00:40:07;;;;;;;3.40;1.52;;;7.70;99.90;;;;;;5097990;28;20027;-68
2021/11/01 00:42:33;;;;;;;6.30;3.42;;;7.70;99.90;;;;;;5097937;28;20055;-68
2021/11/01 00:44:59;;;;;;;;;;;7.50;99.90;;;;;;5097223;28;20050;-70
2021/11/01 00:47:25;;;;;;;1.80;1.35;;;7.70;99.90;;;;;;5097881;28;19946;-70
2021/11/01 00:49:52;;;;;;;3.17;1.25;;;7.50;99.90;;;;;;5097507;28;20057;-69
2021/11/01 00:52:22;;;;;;;4.07;1.10;;;7.60;99.90;;;;;;5096622;28;21023;-68
2021/11/01 00:54:49;;;;;;;5.88;1.10;;;7.50;99.90;;;;;;5097532;28;20446;-69
2021/11/01 00:57:15;;;;;;;4.47;1.40;;;7.40;99.90;;;;;;5097298;28;20100;-69
2021/11/01 00:59:41;;;;;;;;;;;7.40;99.90;;;;;;5098454;28;20087;-69
2021/11/01 01:02:11;;;;;;;3.90;1.00;;;7.30;99.90;;;;;;5110398;28;19908;-69
2021/11/01 01:04:37;;;;;;;1.25;0.88;;;7.30;99.90;;;;;;5096955;28;20396;-69
2021/11/01 01:07:03;;;;;;;0.80;0.80;;;7.10;99.90;;;;;;5097435;28;20028;-69
2021/11/01 01:09:29;;;;;;;1.05;1.00;;;7.00;99.90;;;;;;5097309;28;20051;-71
2021/11/01 01:11:55;;;;;;;;;;;7.10;99.90;;;;;;5097809;28;20031;-69
2021/11/01 01:14:26;;;;;;;1.20;1.10;;;6.90;99.90;;;;;;5097153;28;19904;-71
2021/11/01 01:16:53;;;;;;;4.60;1.15;;;6.90;99.90;;;;;;5097358;28;20020;-69
2021/11/01 01:19:22;;;;;;;1.00;1.00;;;6.80;99.90;;;;;;5095902;28;20106;-69
2021/11/01 01:24:33;;;;;;;2.17;1.25;;;6.70;99.90;;;;;;5097007;28;20549;-69
2021/11/01 01:26:59;;;;;;;1.95;0.90;;;6.80;99.90;;;;;;5097130;28;20032;-69
2021/11/01 01:29:25;;;;;;;;;;;6.70;99.90;;;;;;5097326;28;20535;-69
2021/11/01 01:31:51;;;;;;;1.33;1.20;;;6.50;99.90;;;;;;5097113;28;19911;-69
2021/11/01 01:34:18;;;;;;;4.03;1.30;;;6.60;99.90;;;;;;5096300;28;20108;-69
2021/11/01 01:36:45;;;;;;;2.90;1.27;;;6.60;99.90;;;;;;5096686;28;20024;-69
2021/11/01 01:39:12;;;;;;;1.58;1.20;;;6.60;99.90;;;;;;5096968;28;20028;-69
2021/11/01 01:41:43;;;;;;;5.03;1.30;;;6.70;99.90;;;;;;5096929;28;20027;-69
2021/11/01 01:44:09;;;;;;;1.45;1.27;;;6.90;99.90;;;;;;5096884;28;20079;-69
2021/11/01 01:46:35;;;;;;;;;;;6.80;99.90;;;;;;5097301;28;20085;-69
2021/11/01 01:49:01;;;;;;;2.33;1.50;;;6.60;99.90;;;;;;5096759;28;19904;-69
2021/11/01 01:51:30;;;;;;;1.58;1.40;;;6.80;99.90;;;;;;5096524;28;20498;-68
2021/11/01 01:53:58;;;;;;;8.23;1.35;;;6.90;99.90;;;;;;5096723;28;20103;-69
2021/11/01 01:56:25;;;;;;;1.27;1.08;;;6.90;99.90;;;;;;5096639;28;20090;-69
2021/11/01 01:58:56;;;;;;;2.35;1.10;;;6.70;99.90;;;;;;5096965;28;20073;-69
2021/11/01 02:01:23;;;;;;;1.92;1.27;;;6.70;99.90;;;;;;5094874;28;20036;-69
2021/11/01 02:03:50;;;;;;;2.40;1.20;;;6.60;99.90;;;;;;5096656;28;20027;-69
2021/11/01 02:06:43;;;;;;;2.15;1.10;;;6.60;99.90;;;;;;5095175;28;20044;-69
2021/11/01 02:09:25;;;;;;;4.60;1.63;;;6.70;99.90;;;;;;5096821;28;20020;-69
2021/11/01 02:12:14;;;;;;;2.60;1.30;;;6.70;99.90;;;;;;5096645;28;20206;-69
2021/11/01 02:14:53;;;;;;;3.42;1.63;;;6.80;99.90;;;;;;5096558;28;20012;-69
2021/11/01 02:17:26;;;;;;;1.50;1.40;;;6.90;99.90;;;;;;5096501;28;20055;-69
2021/11/01 02:19:56;;;;;;;2.03;1.50;;;6.80;99.90;;;;;;5096138;28;20427;-69
2021/11/01 02:22:33;;;;;;;4.00;1.20;;;6.80;99.90;;;;;;5096549;28;20028;-69
2021/11/01 02:25:11;;;;;;;2.05;1.85;;;6.80;99.90;;;;;;5096635;28;20107;-69
2021/11/01 02:27:39;;;;;;;4.88;1.50;;;6.80;99.90;;;;;;5096305;28;20087;-69
2021/11/01 02:30:10;;;;;;;3.38;1.40;;;6.70;99.90;;;;;;5096469;28;20016;-69
2021/11/01 02:32:40;;;;;;;4.63;1.20;;;6.60;99.90;;;;;;5096475;28;20062;-69
2021/11/01 02:35:07;;;;;;;2.63;1.42;;;6.60;99.90;;;;;;5096126;28;20020;-69
2021/11/01 02:37:37;;;;;;;4.68;1.27;;;6.60;99.90;;;;;;5095931;28;20071;-69
2021/11/01 02:40:04;;;;;;;2.15;1.42;;;6.70;99.90;;;;;;5096304;28;20463;-69
2021/11/01 02:42:30;;;;;;;2.20;1.63;;;6.80;99.90;;;;;;5096112;28;20016;-69
2021/11/01 02:45:01;;;;;;;;;;;6.80;99.90;;;;;;5096918;28;20391;-69
2021/11/01 02:47:27;;;;;;;1.48;1.02;;;6.80;99.90;;;;;;5100039;28;19908;-69
2021/11/01 02:49:57;;;;;;;2.08;0.90;;;7.00;99.90;;;;;;5099768;28;20023;-68
2021/11/01 02:52:24;;;;;;;2.33;1.30;;;7.00;99.90;;;;;;5099782;28;20091;-69
2021/11/01 02:54:51;;;;;;;2.60;1.63;;;7.10;99.90;;;;;;5099808;28;20028;-69
2021/11/01 02:57:17;;;;;;;2.85;1.40;;;7.10;99.90;;;;;;5099699;28;20044;-69
2021/11/01 02:59:44;;;;;;;1.20;1.10;;;7.10;99.90;;;;;;5099729;28;20024;-69
2021/11/01 03:02:10;;;;;;;2.45;1.00;;;7.30;99.90;;;;;;5112466;28;20028;-69
2021/11/01 03:04:36;;;;;;;2.45;1.10;;;7.30;99.90;;;;;;5099440;28;20051;-69
2021/11/01 03:07:02;;;;;;;;;;;7.30;99.90;;;;;;5100177;28;20028;-69
2021/11/01 03:09:37;;;;;;;5.32;1.75;;;7.30;99.90;;;;;;5099622;28;19929;-69
2021/11/01 03:12:07;;;;;;;5.35;1.58;;;7.30;99.90;;;;;;5099771;28;20468;-69
2021/11/01 03:14:40;;;;;;;7.35;1.30;;;7.40;99.90;;;;;;5099337;28;20039;-69
2021/11/01 03:17:08;;;;;;;4.80;1.77;;;7.30;99.90;;;;;;5099594;28;20069;-69
2021/11/01 03:19:38;;;;;;;7.35;1.60;;;7.40;99.90;;;;;;5099221;28;20023;-69
2021/11/01 03:22:06;;;;;;;4.13;1.63;;;7.30;99.90;;;;;;5099282;28;20028;-69
2021/11/01 03:24:38;;;;;;;3.60;1.20;;;7.40;99.90;;;;;;5099326;28;20052;-69
2021/11/01 03:27:06;;;;;;;4.18;1.58;;;7.30;99.90;;;;;;5099416;28;20446;-69
2021/11/01 03:29:34;;;;;;;6.18;1.85;;;7.50;99.90;;;;;;5099228;28;20036;-69
2021/11/01 03:32:04;;;;;;;3.63;1.30;;;7.40;99.90;;;;;;5099194;28;20020;-69
2021/11/01 03:34:32;;;;;;;4.30;1.50;;;7.20;99.90;;;;;;5099065;28;20399;-69
2021/11/01 03:37:08;;;;;;;4.15;1.50;;;7.30;99.90;;;;;;5098893;28;20103;-69
2021/11/01 03:39:35;;;;;;;2.47;1.83;;;7.30;99.90;;;;;;5099279;28;20028;-69
2021/11/01 03:42:02;;;;;;;4.07;1.70;;;7.20;99.90;;;;;;5098868;28;20019;-69
2021/11/01 03:44:32;;;;;;;3.78;1.50;;;7.20;99.90;;;;;;5099188;28;20048;-69
2021/11/01 03:47:00;;;;;;;2.20;1.50;;;6.20;99.90;;;;;;5098776;28;20409;-69
2021/11/01 03:49:28;;;;;;;5.78;1.58;;;7.20;99.90;;;;;;5098739;28;20020;-68
2021/11/01 03:54:37;;;;;;;8.25;1.95;;;7.00;99.90;;;;;;5098984;28;20104;-69
2021/11/01 03:57:08;;;;;;;2.30;1.98;;;7.20;99.90;;;;;;5096763;28;20047;-69
2021/11/01 03:59:35;;;;;;;6.32;3.15;;;7.10;99.90;;;;;;5097429;28;20024;-69
2021/11/01 04:02:01;;;;;;;12.05;2.50;;;7.20;99.90;;;;;;5111129;28;20016;-69
2021/11/01 04:04:28;;;;;;;10.93;2.00;;;7.30;99.90;;;;;;5098444;28;20475;-69
2021/11/01 04:06:54;;;;;;;14.13;3.47;;;7.30;99.90;;;;;;5098385;28;20530;-69
2021/11/01 04:09:21;;;;;;;7.90;2.75;;;7.70;99.90;;;;;;5098584;28;20059;-69
2021/11/01 04:11:50;;;;;;;6.63;1.90;;;7.80;99.90;;;;;;5098490;28;20027;-69
2021/11/01 04:14:19;;;;;;;8.48;1.75;;;7.90;99.90;;;;;;5098406;28;20034;-69
2021/11/01 04:16:48;;;;;;;6.90;1.50;;;8.20;99.90;;;;;;5098587;28;20024;-69
2021/11/01 04:21:45;;;;;;;5.85;1.30;;;8.30;99.90;;;;;;5098234;28;20047;-69
2021/11/01 04:24:12;;;;;;;3.53;1.70;;;8.10;99.90;;;;;;5098373;28;20095;-69
2021/11/01 04:26:38;;;;;;;5.45;1.80;;;8.20;99.90;;;;;;5098596;28;20035;-69
2021/11/01 04:29:07;;;;;;;7.25;1.77;;;8.10;99.90;;;;;;5096689;28;20068;-69
2021/11/01 04:31:36;;;;;;;4.43;1.48;;;8.00;99.90;;;;;;5098224;28;20275;-69
2021/11/01 04:34:13;;;;;;;5.35;1.33;;;8.10;99.90;;;;;;5097938;28;20050;-69
2021/11/01 04:36:39;;;;;;;5.95;1.88;;;8.10;99.90;;;;;;5097800;28;20020;-69
2021/11/01 04:39:19;;;;;;;10.65;3.08;;;8.00;99.90;;;;;;5097860;28;20564;-68
2021/11/01 04:53:08;;;;;;;4.80;1.38;;;7.90;99.90;;;;;;5097576;28;20031;-69
2021/11/01 04:55:34;;;;;;;5.45;1.77;;;7.80;99.90;;;;;;5083973;28;20024;-69
2021/11/01 04:58:02;;;;;;;3.92;1.30;;;7.60;99.90;;;;;;5097547;28;20101;-69
2021/11/01 05:00:28;;;;;;;6.43;1.42;;;7.60;99.90;;;;;;5104193;28;20039;-68
2021/11/01 05:03:41;;;;;;;13.50;1.38;;;7.60;99.90;;;;;;5103802;28;20103;-69
2021/11/01 05:05:40;;;;;;;4.18;1.60;;;7.70;99.90;;;;;;5089756;28;20067;-68
2021/11/01 05:08:06;;;;;;;;;;;7.50;99.90;;;;;;5096828;28;20039;-68
2021/11/01 05:10:39;;;;;;;4.47;1.20;;;7.30;99.90;;;;;;5097464;28;19904;-69
2021/11/01 05:13:13;;;;;;;4.95;1.63;;;7.40;99.90;;;;;;5097226;28;20031;-69
2021/11/01 05:15:55;;;;;;;2.78;1.25;;;7.40;99.90;;;;;;5097556;28;20020;-68
2021/11/01 05:18:29;;;;;;;6.72;1.42;;;7.40;99.90;;;;;;5097306;28;20028;-68
2021/11/01 05:21:16;;;;;;;3.83;1.50;;;7.40;99.90;;;;;;5096732;28;20017;-69
2021/11/01 05:23:50;;;;;;;6.05;2.20;;;7.40;99.90;;;;;;5097208;28;20027;-69
2021/11/01 05:26:24;;;;;;;8.25;1.73;;;7.20;99.90;;;;;;5096996;28;20023;-69
2021/11/01 05:28:58;;;;;;;3.88;1.30;;;7.20;99.90;;;;;;5097050;28;20016;-69
2021/11/01 05:31:25;;;;;;;11.82;1.65;;;7.00;99.90;;;;;;5095648;28;20020;-69
2021/11/01 05:34:01;;;;;;;3.80;1.33;;;7.10;99.90;;;;;;5096836;28;20023;-69
2021/11/01 05:36:28;;;;;;;2.55;1.20;;;7.20;99.90;;;;;;5095368;28;20089;-69
2021/11/01 05:38:55;;;;;;;2.80;1.48;;;7.10;99.90;;;;;;5096801;28;20032;-69
2021/11/01 05:41:21;;;;;;;1.50;1.25;;;7.00;99.90;;;;;;5096925;28;20023;-69
2021/11/01 05:43:48;;;;;;;3.13;1.10;;;7.00;99.90;;;;;;5096725;28;20028;-69
2021/11/01 05:46:15;;;;;;;3.05;1.30;;;7.00;99.90;;;;;;5096859;28;20531;-69
2021/11/01 05:48:48;;;;;;;3.15;1.70;;;7.00;99.90;;;;;;5096839;28;20028;-69
2021/11/01 05:51:16;;;;;;;5.25;1.10;;;7.00;99.90;;;;;;5096571;28;20020;-69
2021/11/01 05:53:44;;;;;;;1.92;1.30;;;6.90;99.90;;;;;;5096494;28;20045;-69
2021/11/01 05:59:36;;;;;;;3.20;1.30;;;6.80;99.90;;;;;;5080336;28;20043;-69
2021/11/01 06:02:24;;;;;;;3.83;1.05;;;6.80;99.90;;;;;;5109115;28;20514;-68
2021/11/01 06:05:08;;;;;;;1.48;1.23;;;6.70;99.90;;;;;;5096292;28;20027;-68
2021/11/01 06:08:08;;;;;;;1.55;1.00;;;6.60;99.90;;;;;;5096637;28;20434;-68
2021/11/01 06:13:29;;;;;;;1.65;1.10;;;6.60;99.90;;;;;;5096542;28;20107;-68
2021/11/01 06:15:58;;;;;;;5.55;1.40;;;6.70;99.90;;;;;;5096623;28;20108;-68
2021/11/01 06:18:35;;;;;;;2.90;1.33;;;6.70;99.90;;;;;;5096476;28;20045;-68
2021/11/01 06:21:05;;;;;;;3.10;1.10;;;6.70;99.90;;;;;;5099933;28;20023;-69
2021/11/01 06:23:31;;;;;;;2.47;1.45;;;6.50;99.90;;;;;;5100612;28;20020;-69
2021/11/01 06:25:59;;;;;;;4.05;1.38;;;6.50;99.90;;;;;;5100411;28;20020;-69
2021/11/01 06:28:26;;;;;;;1.88;1.10;;;6.50;99.90;;;;;;5100620;28;20028;-69
2021/11/01 06:31:00;;;;;;;7.22;2.78;;;6.40;99.90;;;;;;5100323;28;20050;-69
2021/11/01 07:16:32;;;;;;;3.22;1.50;;;6.90;99.90;;;;;;5099430;28;20035;-69
2021/11/01 08:22:06;;;;;;;8.98;1.55;;;11.40;99.90;;;;;;5051878;28;20559;-70
2021/11/01 08:27:29;;;;;;;3.17;1.10;;;10.90;99.90;;;;;;5098273;28;20028;-70
2021/11/01 08:41:03;;;;;;;5.93;1.20;;;10.30;99.90;;;;;;5097792;28;20067;-69
2021/11/01 08:43:52;;;;;;;6.38;1.75;;;10.20;99.90;;;;;;5097698;28;20047;-69
2021/11/01 08:47:09;;;;;;;7.35;2.00;;;10.30;99.90;;;;;;5097927;28;20391;-69
2021/11/01 09:03:15;;;;;;;5.15;1.73;;;10.20;99.90;;;;;;5097161;28;20565;-69
2021/11/01 09:13:40;;;;;;;5.22;1.77;;;10.30;99.90;;;;;;5096922;28;20031;-69
2021/11/01 09:21:40;;;;;;;7.13;1.88;;;10.20;99.90;;;;;;5096522;28;20154;-69
2021/11/01 09:26:40;;;;;;;6.32;2.17;;;10.60;99.90;;;;;;5097249;28;20388;-68
2021/11/01 09:29:24;;;;;;;7.65;3.00;;;11.40;99.90;;;;;;5096328;28;20020;-69
2021/11/01 09:37:43;;;;;;;23.25;4.10;;;12.60;99.90;;;;;;5096708;28;20030;-68
2021/11/01 09:42:53;;;;;;;6.60;2.00;;;13.40;99.90;;;;;;5096528;28;20027;-68
2021/11/01 09:45:21;;;;;;;8.55;1.92;;;13.60;99.90;;;;;;5096578;28;20016;-68
2021/11/01 09:47:49;;;;;;;5.68;1.77;;;13.70;99.90;;;;;;5096961;28;20034;-69
2021/11/01 09:50:18;;;;;;;3.70;1.52;;;13.80;99.90;;;;;;5094402;28;20050;-68
2021/11/01 09:52:59;;;;;;;4.72;1.27;;;14.10;99.90;;;;;;5099121;28;20020;-69
2021/11/01 09:55:47;;;;;;;6.20;2.00;;;14.20;99.90;;;;;;5095801;28;20024;-69
2021/11/01 10:00:59;;;;;;;10.38;1.63;;;14.70;99.90;;;;;;5107346;28;20559;-69
2021/11/01 10:03:44;;;;;;;2.88;1.45;;;14.80;99.90;;;;;;5098343;28;20093;-69
2021/11/01 10:06:14;;;;;;;6.10;1.55;;;15.20;99.90;;;;;;5095903;28;20042;-69
2021/11/01 10:08:47;;;;;;;5.43;1.27;;;15.30;99.90;;;;;;5096579;28;20020;-69
2021/11/01 10:11:17;;;;;;;3.83;1.05;;;15.70;99.90;;;;;;5096523;28;20024;-69
2021/11/01 10:13:50;;;;;;;1.60;0.90;;;16.00;99.90;;;;;;5096147;28;20085;-68
2021/11/01 10:19:34;;;;;;;1.23;0.80;;;15.20;99.90;;;;;;5095775;28;20082;-69
2021/11/01 10:22:07;;;;;;;4.20;0.95;;;15.00;99.90;;;;;;5096250;28;20020;-69
2021/11/01 10:24:39;;;;;;;1.75;0.85;;;15.70;99.90;;;;;;5096269;28;20023;-69
2021/11/01 10:27:38;;;;;;;2.08;0.93;;;16.10;99.90;;;;;;5095946;28;20446;-69
2021/11/01 10:30:14;;;;;;;2.33;1.00;;;16.50;99.90;;;;;;5096366;28;20467;-69
2021/11/01 10:32:44;;;;;;;7.90;0.93;;;;;;;;;;5096437;28;20028;-69
2021/11/01 10:35:21;;;;;;;3.13;0.77;;;16.70;99.90;;;;;;5094644;28;20039;-69
2021/11/01 10:38:00;;;;;;;2.08;0.68;;;16.80;99.90;;;;;;5096084;28;20025;-69
2021/11/01 10:40:29;;;;;;;7.93;0.80;;;16.60;99.90;;;;;;5095096;28;20026;-69
2021/11/01 10:43:02;;;;;;;5.93;1.13;;;16.70;99.90;;;;;;5094729;28;20020;-69
2021/11/01 10:46:01;;;;;;;2.35;0.90;;;16.70;99.90;;;;;;5094770;28;20030;-69
2021/11/01 11:13:16;;;;;;;4.22;1.30;;;18.80;99.90;;;;;;5099213;28;20031;-69
2021/11/01 11:15:45;;;;;;;1.90;0.88;;;19.00;99.90;;;;;;5099713;28;20063;-69
2021/11/01 11:19:08;;;;;;;2.55;0.80;;;19.00;99.90;;;;;;5099296;28;20468;-68
2021/11/01 11:21:27;;;;;;;2.72;1.20;;;19.80;99.90;;;;;;5091521;28;20093;-69
2021/11/01 11:26:53;;;;;;;3.50;0.90;;;20.30;99.90;;;;;;5098932;28;20032;-68
2021/11/01 11:32:11;;;;;;;3.38;0.80;;;20.50;99.90;;;;;;5099298;28;20024;-68
2021/11/01 11:38:06;;;;;;;2.70;1.00;;;20.60;99.90;;;;;;5098786;28;20115;-68
2021/11/01 11:48:33;;;;;;;1.98;0.90;;;;;;;;;;5098341;28;20038;-68
2021/11/01 11:51:06;;;;;;;2.42;0.90;;;;;;;;;;5098668;28;20024;-68
2021/11/01 11:53:51;;;;;;;3.00;0.70;;;18.80;99.90;;;;;;5101091;28;20043;-68
2021/11/01 11:56:25;;;;;;;2.80;1.00;;;18.70;99.90;;;;;;5089643;28;20048;-68
2021/11/01 11:58:52;;;;;;;4.47;1.25;;;19.20;99.90;;;;;;5097487;28;20077;-68
2021/11/01 12:01:27;;;;;;;4.30;1.23;;;18.60;99.90;;;;;;5111254;28;20072;-68
2021/11/01 12:04:00;;;;;;;2.35;1.10;;;18.10;99.90;;;;;;5098218;28;20095;-68
2021/11/01 12:06:56;;;;;;;2.85;1.08;;;17.60;99.90;;;;;;5098650;28;20024;-68
2021/11/01 12:09:30;;;;;;;1.97;1.20;;;17.40;99.90;;;;;;5098633;28;20016;-69
2021/11/01 12:17:29;;;;;;;2.95;0.93;;;18.30;99.90;;;;;;5097990;28;20032;-69
2021/11/01 12:20:07;;;;;;;3.45;1.02;;;18.90;99.90;;;;;;5098116;28;20055;-69
2021/11/01 12:22:40;;;;;;;3.00;1.10;;;18.90;99.90;;;;;;5098025;28;20008;-69
2021/11/01 12:25:11;;;;;;;2.80;1.00;;;18.90;99.90;;;;;;5097533;28;20024;-68
2021/11/01 12:27:39;;;;;;;3.47;1.15;;;19.10;99.90;;;;;;5097990;28;20026;-69
2021/11/01 12:30:09;;;;;;;4.63;0.90;;;19.30;99.90;;;;;;5095591;28;20031;-69
2021/11/01 12:32:40;;;;;;;3.28;1.33;;;19.50;99.90;;;;;;5097365;28;20114;-68
2021/11/01 12:35:22;;;;;;;5.88;1.50;;;19.40;99.90;;;;;;5097849;28;20067;-69
2021/11/01 12:37:54;;;;;;;5.68;1.33;;;19.20;99.90;;;;;;5097515;28;20484;-69
2021/11/01 12:59:11;;;;;;;4.82;1.65;;;18.60;99.90;;;;;;5097556;28;20039;-69
2021/11/01 13:01:46;;;;;;;6.03;1.38;;;18.10;99.90;;;;;;5095979;28;20031;-69
2021/11/01 13:04:26;;;;;;;8.07;1.63;;;17.80;99.90;;;;;;5096149;28;20027;-69
2021/11/01 13:18:13;;;;;;;12.35;2.75;;;17.90;99.90;;;;;;5097207;28;20355;-69
2021/11/01 13:20:52;;;;;;;7.47;1.55;;;17.80;99.90;;;;;;5097202;28;20016;-69
2021/11/01 13:23:19;;;;;;;5.32;1.55;;;17.40;99.90;;;;;;5097202;28;20091;-69
2021/11/01 13:25:59;;;;;;;5.10;1.33;;;17.10;99.90;;;;;;5096960;28;20441;-69
2021/11/01 13:28:45;;;;;;;6.82;1.35;;;17.10;99.90;;;;;;5096822;28;20148;-70
2021/11/01 13:36:46;;;;;;;7.50;1.48;;;17.60;99.90;;;;;;5096855;28;20056;-69
2021/11/01 13:39:23;;;;;;;7.13;1.30;;;17.30;99.90;;;;;;5096972;28;20049;-69
2021/11/01 13:41:49;;;;;;;6.25;1.63;;;16.80;99.90;;;;;;5095447;28;20020;-69
2021/11/01 13:44:23;;;;;;;8.18;1.73;;;16.80;99.90;;;;;;5095655;28;20027;-69
2021/11/01 13:46:52;;;;;;;5.50;1.10;;;16.60;99.90;;;;;;5096685;28;20016;-69
2021/11/01 13:49:20;;;;;;;8.60;1.85;;;16.20;99.90;;;;;;5096691;28;20008;-69
2021/11/01 13:51:48;;;;;;;4.53;1.48;;;16.00;99.90;;;;;;5095165;28;20024;-69
2021/11/01 13:56:48;;;;;;;6.00;1.58;;;15.40;99.90;;;;;;5096763;28;20055;-70
2021/11/01 13:59:27;;;;;;;7.15;1.58;;;15.30;99.90;;;;;;5091528;28;20048;-69
2021/11/01 14:03:09;;;;;;;7.03;1.63;;;15.10;99.90;;;;;;5096459;28;20028;-69
2021/11/01 14:13:52;;;;;;;6.55;1.35;;;14.90;99.90;;;;;;5045204;28;20044;-70
2021/11/01 14:16:23;;;;;;;2.63;1.30;;;15.00;99.90;;;;;;5088428;28;20036;-70
2021/11/01 14:19:14;;;;;;;6.63;2.40;;;14.90;99.90;;;;;;5107071;28;20032;-70
2021/11/01 14:27:41;;;;;;;10.55;1.88;;;14.80;99.90;;;;;;5096177;28;20106;-70
2021/11/01 15:14:07;;;;;;;3.83;1.10;;;11.10;99.90;;;;;;5099626;28;20388;-69
2021/11/01 15:32:39;;;;;;;7.55;3.25;;;11.00;99.90;;;;;;5099249;28;20035;-68
2021/11/01 15:40:36;;;;;;;4.65;1.50;;;11.30;99.90;;;;;;5099210;28;20488;-68
2021/11/01 16:18:39;;;;;;;6.40;1.65;;;10.70;99.90;;;;;;5118698;28;20491;-69
2021/11/01 16:21:05;;;;;;;5.63;1.52;;;10.70;99.90;;;;;;5117925;28;20532;-69
2021/11/01 16:23:38;;;;;;;4.97;1.30;;;10.60;99.90;;;;;;5118494;28;20075;-69
2021/11/01 16:26:23;;;;;;;3.88;1.95;;;10.70;99.90;;;;;;5117231;28;20312;-69
2021/11/01 16:28:54;;;;;;;2.50;1.20;;;10.60;99.90;;;;;;5118216;28;20024;-69
2021/11/01 16:32:06;;;;;;;6.38;1.25;;;10.00;99.90;;;;;;5118316;28;20019;-69
2021/11/01 16:34:21;;;;;;;8.25;1.48;;;10.60;99.90;;;;;;5109956;28;20078;-69
2021/11/01 16:39:28;;;;;;;4.25;1.23;;;10.40;99.90;;;;;;5118053;28;20487;-69
2021/11/01 16:41:57;;;;;;;3.95;1.40;;;10.50;99.90;;;;;;5118252;28;20068;-69
2021/11/01 16:44:32;;;;;;;6.78;1.35;;;10.40;99.90;;;;;;5117803;28;20062;-68
2021/11/01 16:46:59;;;;;;;10.63;2.80;;;10.50;99.90;;;;;;5118328;28;20043;-69
2021/11/01 16:49:29;;;;;;;3.90;1.42;;;10.30;99.90;;;;;;5116313;28;20031;-69
2021/11/01 16:51:55;;;;;;;11.13;3.53;;;10.40;99.90;;;;;;5117811;28;20023;-69
2021/11/01 16:54:29;;;;;;;2.63;1.20;;;10.40;99.90;;;;;;5110683;28;20028;-69
2021/11/01 17:04:57;;;;;;;4.45;1.30;;;10.10;99.90;;;;;;5090777;28;20024;-69
2021/11/01 17:07:42;;;;;;;3.58;1.40;;;10.20;99.90;;;;;;5087592;28;20031;-69
2021/11/01 17:21:37;;;;;;;9.93;2.38;;;9.70;99.90;;;;;;5096652;28;20234;-69
2021/11/01 18:53:05;;;;;;;9.55;2.40;;;8.50;99.90;;;;;;5100174;28;20059;-69
2021/11/01 18:55:33;;;;;;;2.80;1.98;;;8.50;99.90;;;;;;5105498;28;20020;-69
2021/11/01 18:58:01;;;;;;;2.83;1.90;;;7.50;99.90;;;;;;5099861;28;20403;-69
2021/11/01 19:00:27;;;;;;;3.10;1.70;;;8.40;99.90;;;;;;5105939;28;20487;-69
2021/11/01 19:02:57;;;;;;;4.80;3.25;;;8.60;99.90;;;;;;5104775;28;20052;-69
2021/11/01 19:05:44;;;;;;;2.95;2.28;;;8.50;99.90;;;;;;5099782;28;20016;-69
2021/11/01 19:08:21;;;;;;;3.85;2.67;;;8.50;99.90;;;;;;5099581;28;20027;-69
2021/11/01 20:11:30;;;;;;;7.38;3.90;;;8.80;99.90;;;;;;5098123;28;20024;-69
2021/11/01 21:26:22;;;;;;;4.72;2.15;;;9.20;99.90;;;;;;5097149;28;20470;-68
2021/11/01 21:28:50;;;;;;;2.22;1.65;;;9.20;99.90;;;;;;5097155;28;20094;-68
2021/11/01 21:31:17;;;;;;;3.83;2.13;;;9.10;99.90;;;;;;5096575;28;20111;-68
2021/11/01 21:33:47;;;;;;;2.45;1.70;;;9.10;99.90;;;;;;5096812;28;20027;-68
2021/11/01 21:36:23;;;;;;;1.73;1.63;;;9.00;99.90;;;;;;5097115;28;20028;-68
2021/11/01 21:38:54;;;;;;;1.67;1.58;;;8.90;99.90;;;;;;5096214;28;20024;-68
2021/11/01 21:41:21;;;;;;;4.22;1.50;;;8.90;99.90;;;;;;5096886;28;20035;-69
2021/11/01 21:43:47;;;;;;;4.05;2.00;;;8.80;99.90;;;;;;5096806;28;20016;-68
2021/11/01 21:46:14;;;;;;;2.47;1.67;;;8.70;99.90;;;;;;5096500;28;20035;-68
2021/11/01 21:48:40;;;;;;;5.10;3.78;;;8.00;99.90;;;;;;5096680;28;20018;-68
2021/11/01 21:51:06;;;;;;;2.60;2.03;;;8.50;99.90;;;;;;5095113;28;20119;-68
2021/11/01 21:53:33;;;;;;;3.92;1.70;;;8.40;99.90;;;;;;5096009;28;20020;-68
2021/11/01 21:56:01;;;;;;;3.25;1.40;;;8.60;99.90;;;;;;5102832;28;20048;-68
2021/11/01 22:01:43;;;;;;;5.55;1.70;;;8.10;99.90;;;;;;5092400;28;20580;-68
2021/11/01 22:21:01;;;;;;;3.88;1.63;;;7.60;99.90;;;;;;5039605;28;20024;-69
2021/11/01 22:39:34;;;;;;;1.45;1.08;;;7.20;99.90;;;;;;5096145;28;20097;-68
2021/11/01 22:42:14;;;;;;;1.92;1.15;;;7.20;99.90;;;;;;5095956;28;20514;-68
2021/11/01 22:56:00;;;;;;;10.50;1.40;;;6.90;99.90;;;;;;5095879;28;20034;-68
2021/11/01 22:58:23;;;;;;;1.40;1.13;;;6.90;99.90;;;;;;5093530;28;20062;-68
2021/11/01 23:01:01;;;;;;;3.05;1.30;;;6.70;99.90;;;;;;5094718;28;20020;-69
2021/11/01 23:03:51;;;;;;;1.23;1.20;;;7.00;99.90;;;;;;5099648;28;20046;-68
2021/11/01 23:33:52;;;;;;;1.80;1.17;;;6.30;99.90;;;;;;5099288;28;20035;-68
2021/11/01 23:36:19;;;;;;;;;;;6.40;99.90;;;;;;5099799;28;20115;-68
2021/11/01 23:38:45;;;;;;;1.50;1.35;;;6.40;99.90;;;;;;5099034;28;19908;-69
2021/11/01 23:41:12;;;;;;;1.85;1.15;;;6.20;99.90;;;;;;5099359;28;20031;-69
2021/11/01 23:43:39;;;;;;;1.10;1.10;;;6.20;99.90;;;;;;5099079;28;20026;-69
2021/11/01 23:46:05;;;;;;;4.30;1.35;;;6.20;99.90;;;;;;5099170;28;20047;-68
2021/11/01 23:48:31;;;;;;;;;;;6.20;99.90;;;;;;5099242;28;20396;-68
2021/11/01 23:50:59;;;;;;;6.47;1.57;;;6.20;99.90;;;;;;5099091;28;19904;-69
2021/11/01 23:56:06;;;;;;;1.30;1.20;;;6.20;99.90;;;;;;5098790;28;20036;-68
2021/11/01 23:58:32;;;;;;;1.30;1.20;;;5.90;99.90;;;;;;5098634;28;20031;-68
